sensor_id;sensor_type;location;lat;lon;timestamp;P1;durP1;ratioP1;P2;durP2;ratioP2
68653;SDS011;55636;51.108;13.622;2024-03-08T00:00:20;21.03;;;17.73;;
68653;SDS011;55636;51.108;13.622;2024-03-08T00:01:23;19.23;;;17.17;;
68653;SDS011;55636;51.108;13.622;2024-03-08T00:02:26;19.10;;;17.00;;
68653;SDS011;55636;51.108;13.622;2024-03-08T00:03:28;18.90;;;16.97;;
68653;SDS011;55636;51.108;13.622;2024-03-08T00:04:31;20.03;;;17.17;;
68653;SDS011;55636;51.108;13.622;2024-03-08T00:05:34;18.80;;;16.80;;
68653;SDS011;55636;51.108;13.622;2024-03-08T00:06:36;18.37;;;16.47;;
68653;SDS011;55636;51.108;13.622;2024-03-08T00:07:39;18.60;;;16.60;;
68653;SDS011;55636;51.108;13.622;2024-03-08T00:08:43;18.67;;;16.67;;
68653;SDS011;55636;51.108;13.622;2024-03-08T00:09:46;18.17;;;16.20;;
68653;SDS011;55636;51.108;13.622;2024-03-08T00:10:49;19.57;;;17.47;;
68653;SDS011;55636;51.108;13.622;2024-03-08T00:11:52;21.53;;;17.80;;
68653;SDS011;55636;51.108;13.622;2024-03-08T00:12:54;19.23;;;16.93;;
68653;SDS011;55636;51.108;13.622;2024-03-08T00:13:57;20.43;;;18.00;;
68653;SDS011;55636;51.108;13.622;2024-03-08T00:14:59;20.30;;;17.57;;
68653;SDS011;55636;51.108;13.622;2024-03-08T00:16:02;19.83;;;17.63;;
68653;SDS011;55636;51.108;13.622;2024-03-08T00:17:04;19.27;;;17.23;;
68653;SDS011;55636;51.108;13.622;2024-03-08T00:18:07;19.70;;;17.40;;
68653;SDS011;55636;51.108;13.622;2024-03-08T00:19:10;20.10;;;17.53;;
68653;SDS011;55636;51.108;13.622;2024-03-08T00:20:13;22.63;;;18.03;;
68653;SDS011;55636;51.108;13.622;2024-03-08T00:21:18;19.67;;;16.67;;
68653;SDS011;55636;51.108;13.622;2024-03-08T00:22:20;19.87;;;17.60;;
68653;SDS011;55636;51.108;13.622;2024-03-08T00:23:24;19.80;;;17.27;;
68653;SDS011;55636;51.108;13.622;2024-03-08T00:24:26;21.70;;;17.60;;
68653;SDS011;55636;51.108;13.622;2024-03-08T00:25:29;19.50;;;17.40;;
68653;SDS011;55636;51.108;13.622;2024-03-08T00:26:32;21.27;;;17.27;;
68653;SDS011;55636;51.108;13.622;2024-03-08T00:27:35;19.03;;;16.97;;
68653;SDS011;55636;51.108;13.622;2024-03-08T00:28:38;18.53;;;16.47;;
68653;SDS011;55636;51.108;13.622;2024-03-08T00:29:44;18.90;;;16.87;;
68653;SDS011;55636;51.108;13.622;2024-03-08T00:30:47;19.83;;;17.20;;
68653;SDS011;55636;51.108;13.622;2024-03-08T00:31:52;21.53;;;17.27;;
68653;SDS011;55636;51.108;13.622;2024-03-08T00:32:56;21.00;;;17.33;;
68653;SDS011;55636;51.108;13.622;2024-03-08T00:33:59;19.50;;;16.80;;
68653;SDS011;55636;51.108;13.622;2024-03-08T00:35:04;19.87;;;17.07;;
68653;SDS011;55636;51.108;13.622;2024-03-08T00:36:09;19.53;;;17.43;;
68653;SDS011;55636;51.108;13.622;2024-03-08T00:37:12;20.23;;;17.00;;
68653;SDS011;55636;51.108;13.622;2024-03-08T00:38:15;20.73;;;17.50;;
68653;SDS011;55636;51.108;13.622;2024-03-08T00:39:17;20.70;;;17.53;;
68653;SDS011;55636;51.108;13.622;2024-03-08T00:40:22;19.73;;;17.63;;
68653;SDS011;55636;51.108;13.622;2024-03-08T00:41:24;19.73;;;17.53;;
68653;SDS011;55636;51.108;13.622;2024-03-08T00:42:28;20.07;;;17.40;;
68653;SDS011;55636;51.108;13.622;2024-03-08T00:43:30;19.93;;;17.83;;
68653;SDS011;55636;51.108;13.622;2024-03-08T00:44:34;19.33;;;17.27;;
68653;SDS011;55636;51.108;13.622;2024-03-08T00:45:38;20.33;;;18.00;;
68653;SDS011;55636;51.108;13.622;2024-03-08T00:46:41;20.13;;;17.10;;
68653;SDS011;55636;51.108;13.622;2024-03-08T00:47:44;19.67;;;17.20;;
68653;SDS011;55636;51.108;13.622;2024-03-08T00:48:49;19.83;;;17.30;;
68653;SDS011;55636;51.108;13.622;2024-03-08T00:49:51;19.87;;;17.47;;
68653;SDS011;55636;51.108;13.622;2024-03-08T00:50:55;19.50;;;17.40;;
68653;SDS011;55636;51.108;13.622;2024-03-08T00:51:57;20.20;;;17.80;;
68653;SDS011;55636;51.108;13.622;2024-03-08T00:53:00;19.53;;;17.53;;
68653;SDS011;55636;51.108;13.622;2024-03-08T00:54:02;20.03;;;17.10;;
68653;SDS011;55636;51.108;13.622;2024-03-08T00:55:05;18.63;;;16.47;;
68653;SDS011;55636;51.108;13.622;2024-03-08T00:56:09;20.10;;;17.37;;
68653;SDS011;55636;51.108;13.622;2024-03-08T00:57:14;19.73;;;17.63;;
68653;SDS011;55636;51.108;13.622;2024-03-08T00:58:18;19.33;;;17.23;;
68653;SDS011;55636;51.108;13.622;2024-03-08T00:59:21;20.13;;;17.77;;
68653;SDS011;55636;51.108;13.622;2024-03-08T01:00:24;19.73;;;17.63;;
68653;SDS011;55636;51.108;13.622;2024-03-08T01:01:27;19.27;;;16.40;;
68653;SDS011;55636;51.108;13.622;2024-03-08T01:02:30;18.57;;;16.57;;
68653;SDS011;55636;51.108;13.622;2024-03-08T01:03:33;20.90;;;17.67;;
68653;SDS011;55636;51.108;13.622;2024-03-08T01:04:36;19.33;;;16.73;;
68653;SDS011;55636;51.108;13.622;2024-03-08T01:05:39;19.07;;;17.07;;
68653;SDS011;55636;51.108;13.622;2024-03-08T01:06:41;20.50;;;17.57;;
68653;SDS011;55636;51.108;13.622;2024-03-08T01:07:48;19.93;;;17.77;;
68653;SDS011;55636;51.108;13.622;2024-03-08T01:08:51;19.57;;;17.47;;
68653;SDS011;55636;51.108;13.622;2024-03-08T01:09:56;19.27;;;16.80;;
68653;SDS011;55636;51.108;13.622;2024-03-08T01:10:59;22.30;;;18.03;;
68653;SDS011;55636;51.108;13.622;2024-03-08T01:12:02;20.43;;;18.17;;
68653;SDS011;55636;51.108;13.622;2024-03-08T01:13:04;19.93;;;17.27;;
68653;SDS011;55636;51.108;13.622;2024-03-08T01:14:07;19.97;;;17.27;;
68653;SDS011;55636;51.108;13.622;2024-03-08T01:15:10;21.33;;;17.93;;
68653;SDS011;55636;51.108;13.622;2024-03-08T01:16:15;20.30;;;17.73;;
68653;SDS011;55636;51.108;13.622;2024-03-08T01:17:19;20.47;;;17.87;;
68653;SDS011;55636;51.108;13.622;2024-03-08T01:18:23;19.63;;;16.60;;
68653;SDS011;55636;51.108;13.622;2024-03-08T01:19:26;19.27;;;16.60;;
68653;SDS011;55636;51.108;13.622;2024-03-08T01:20:28;20.83;;;17.87;;
68653;SDS011;55636;51.108;13.622;2024-03-08T01:21:31;22.57;;;17.97;;
68653;SDS011;55636;51.108;13.622;2024-03-08T01:22:33;21.70;;;17.67;;
68653;SDS011;55636;51.108;13.622;2024-03-08T01:23:37;20.73;;;17.70;;
68653;SDS011;55636;51.108;13.622;2024-03-08T01:24:40;21.77;;;18.13;;
68653;SDS011;55636;51.108;13.622;2024-03-08T01:25:46;20.00;;;17.60;;
68653;SDS011;55636;51.108;13.622;2024-03-08T01:26:49;19.13;;;16.70;;
68653;SDS011;55636;51.108;13.622;2024-03-08T01:27:52;19.93;;;17.20;;
68653;SDS011;55636;51.108;13.622;2024-03-08T01:28:56;20.00;;;17.30;;
68653;SDS011;55636;51.108;13.622;2024-03-08T01:30:00;19.43;;;17.17;;
68653;SDS011;55636;51.108;13.622;2024-03-08T01:31:05;19.13;;;16.63;;
68653;SDS011;55636;51.108;13.622;2024-03-08T01:32:08;20.57;;;17.33;;
68653;SDS011;55636;51.108;13.622;2024-03-08T01:33:10;19.77;;;17.60;;
68653;SDS011;55636;51.108;13.622;2024-03-08T01:34:13;20.50;;;17.67;;
68653;SDS011;55636;51.108;13.622;2024-03-08T01:35:15;19.57;;;17.37;;
68653;SDS011;55636;51.108;13.622;2024-03-08T01:36:19;21.43;;;17.73;;
68653;SDS011;55636;51.108;13.622;2024-03-08T01:37:25;20.90;;;17.50;;
68653;SDS011;55636;51.108;13.622;2024-03-08T01:38:27;19.93;;;17.73;;
68653;SDS011;55636;51.108;13.622;2024-03-08T01:39:30;20.00;;;17.83;;
68653;SDS011;55636;51.108;13.622;2024-03-08T01:40:34;20.20;;;17.90;;
68653;SDS011;55636;51.108;13.622;2024-03-08T01:41:36;20.17;;;17.87;;
68653;SDS011;55636;51.108;13.622;2024-03-08T01:42:41;22.27;;;18.57;;
68653;SDS011;55636;51.108;13.622;2024-03-08T01:43:44;20.10;;;17.90;;
68653;SDS011;55636;51.108;13.622;2024-03-08T01:44:47;21.67;;;18.57;;
68653;SDS011;55636;51.108;13.622;2024-03-08T01:45:49;18.83;;;16.70;;
68653;SDS011;55636;51.108;13.622;2024-03-08T01:46:52;21.33;;;18.17;;
68653;SDS011;55636;51.108;13.622;2024-03-08T01:47:56;20.07;;;17.50;;
68653;SDS011;55636;51.108;13.622;2024-03-08T01:48:59;20.03;;;17.73;;
68653;SDS011;55636;51.108;13.622;2024-03-08T01:50:03;20.70;;;17.53;;
68653;SDS011;55636;51.108;13.622;2024-03-08T01:51:08;19.87;;;17.73;;
68653;SDS011;55636;51.108;13.622;2024-03-08T01:52:14;20.90;;;18.20;;
68653;SDS011;55636;51.108;13.622;2024-03-08T01:53:17;20.90;;;18.10;;
68653;SDS011;55636;51.108;13.622;2024-03-08T01:54:21;20.90;;;18.27;;
68653;SDS011;55636;51.108;13.622;2024-03-08T01:55:25;20.60;;;18.00;;
68653;SDS011;55636;51.108;13.622;2024-03-08T01:56:28;20.73;;;18.37;;
68653;SDS011;55636;51.108;13.622;2024-03-08T01:57:31;20.27;;;18.07;;
68653;SDS011;55636;51.108;13.622;2024-03-08T01:58:35;22.80;;;18.77;;
68653;SDS011;55636;51.108;13.622;2024-03-08T01:59:39;20.70;;;18.50;;
68653;SDS011;55636;51.108;13.622;2024-03-08T02:00:46;20.13;;;17.93;;
68653;SDS011;55636;51.108;13.622;2024-03-08T02:01:51;20.90;;;18.00;;
68653;SDS011;55636;51.108;13.622;2024-03-08T02:02:55;21.77;;;18.83;;
68653;SDS011;55636;51.108;13.622;2024-03-08T02:04:00;21.80;;;18.73;;
68653;SDS011;55636;51.108;13.622;2024-03-08T02:05:02;20.40;;;18.13;;
68653;SDS011;55636;51.108;13.622;2024-03-08T02:06:05;20.57;;;18.37;;
68653;SDS011;55636;51.108;13.622;2024-03-08T02:07:11;20.80;;;18.50;;
68653;SDS011;55636;51.108;13.622;2024-03-08T02:08:13;23.43;;;19.00;;
68653;SDS011;55636;51.108;13.622;2024-03-08T02:09:16;20.43;;;17.97;;
68653;SDS011;55636;51.108;13.622;2024-03-08T02:10:19;20.97;;;18.47;;
68653;SDS011;55636;51.108;13.622;2024-03-08T02:11:21;21.83;;;17.93;;
68653;SDS011;55636;51.108;13.622;2024-03-08T02:12:25;21.17;;;18.60;;
68653;SDS011;55636;51.108;13.622;2024-03-08T02:13:27;20.63;;;18.03;;
68653;SDS011;55636;51.108;13.622;2024-03-08T02:14:30;21.03;;;18.10;;
68653;SDS011;55636;51.108;13.622;2024-03-08T02:17:01;20.67;;;18.10;;
68653;SDS011;55636;51.108;13.622;2024-03-08T02:18:03;20.13;;;17.50;;
68653;SDS011;55636;51.108;13.622;2024-03-08T02:19:07;22.67;;;18.50;;
68653;SDS011;55636;51.108;13.622;2024-03-08T02:20:11;20.70;;;17.57;;
68653;SDS011;55636;51.108;13.622;2024-03-08T02:21:17;21.63;;;18.37;;
68653;SDS011;55636;51.108;13.622;2024-03-08T02:22:23;21.70;;;18.30;;
68653;SDS011;55636;51.108;13.622;2024-03-08T02:23:26;22.80;;;19.47;;
68653;SDS011;55636;51.108;13.622;2024-03-08T02:24:29;21.07;;;18.23;;
68653;SDS011;55636;51.108;13.622;2024-03-08T02:25:35;21.10;;;18.20;;
68653;SDS011;55636;51.108;13.622;2024-03-08T02:26:37;23.83;;;18.50;;
68653;SDS011;55636;51.108;13.622;2024-03-08T02:27:40;23.23;;;19.03;;
68653;SDS011;55636;51.108;13.622;2024-03-08T02:28:44;20.73;;;17.97;;
68653;SDS011;55636;51.108;13.622;2024-03-08T02:29:49;21.23;;;18.43;;
68653;SDS011;55636;51.108;13.622;2024-03-08T02:30:58;21.07;;;18.17;;
68653;SDS011;55636;51.108;13.622;2024-03-08T02:32:02;21.50;;;18.47;;
68653;SDS011;55636;51.108;13.622;2024-03-08T02:33:06;22.30;;;19.27;;
68653;SDS011;55636;51.108;13.622;2024-03-08T02:34:09;21.53;;;18.57;;
68653;SDS011;55636;51.108;13.622;2024-03-08T02:35:12;20.77;;;17.80;;
68653;SDS011;55636;51.108;13.622;2024-03-08T02:36:15;21.80;;;18.73;;
68653;SDS011;55636;51.108;13.622;2024-03-08T02:37:22;20.60;;;18.10;;
68653;SDS011;55636;51.108;13.622;2024-03-08T02:38:24;22.27;;;18.97;;
68653;SDS011;55636;51.108;13.622;2024-03-08T02:39:27;21.10;;;18.20;;
68653;SDS011;55636;51.108;13.622;2024-03-08T02:40:30;21.57;;;18.27;;
68653;SDS011;55636;51.108;13.622;2024-03-08T02:41:35;22.17;;;18.60;;
68653;SDS011;55636;51.108;13.622;2024-03-08T02:42:37;22.90;;;19.03;;
68653;SDS011;55636;51.108;13.622;2024-03-08T02:43:41;20.77;;;18.47;;
68653;SDS011;55636;51.108;13.622;2024-03-08T02:44:44;21.13;;;17.87;;
68653;SDS011;55636;51.108;13.622;2024-03-08T02:45:46;20.93;;;18.63;;
68653;SDS011;55636;51.108;13.622;2024-03-08T02:46:50;21.07;;;18.40;;
68653;SDS011;55636;51.108;13.622;2024-03-08T02:47:52;21.23;;;18.13;;
68653;SDS011;55636;51.108;13.622;2024-03-08T02:48:55;23.33;;;18.73;;
68653;SDS011;55636;51.108;13.622;2024-03-08T02:49:58;21.80;;;18.03;;
68653;SDS011;55636;51.108;13.622;2024-03-08T02:51:01;21.27;;;18.50;;
68653;SDS011;55636;51.108;13.622;2024-03-08T02:52:04;20.93;;;18.47;;
68653;SDS011;55636;51.108;13.622;2024-03-08T02:53:07;21.87;;;17.97;;
68653;SDS011;55636;51.108;13.622;2024-03-08T02:54:10;21.83;;;18.37;;
68653;SDS011;55636;51.108;13.622;2024-03-08T02:55:13;21.23;;;18.10;;
68653;SDS011;55636;51.108;13.622;2024-03-08T02:56:19;21.93;;;18.27;;
68653;SDS011;55636;51.108;13.622;2024-03-08T02:57:21;21.33;;;18.13;;
68653;SDS011;55636;51.108;13.622;2024-03-08T02:58:24;21.90;;;18.50;;
68653;SDS011;55636;51.108;13.622;2024-03-08T02:59:26;20.83;;;18.30;;
68653;SDS011;55636;51.108;13.622;2024-03-08T03:00:30;22.83;;;18.90;;
68653;SDS011;55636;51.108;13.622;2024-03-08T03:01:33;22.37;;;18.57;;
68653;SDS011;55636;51.108;13.622;2024-03-08T03:02:36;21.13;;;18.43;;
68653;SDS011;55636;51.108;13.622;2024-03-08T03:03:39;24.87;;;19.30;;
68653;SDS011;55636;51.108;13.622;2024-03-08T03:04:42;22.17;;;18.87;;
68653;SDS011;55636;51.108;13.622;2024-03-08T03:05:49;21.53;;;18.43;;
68653;SDS011;55636;51.108;13.622;2024-03-08T03:06:52;22.67;;;18.67;;
68653;SDS011;55636;51.108;13.622;2024-03-08T03:07:54;22.20;;;18.47;;
68653;SDS011;55636;51.108;13.622;2024-03-08T03:08:57;21.33;;;17.80;;
68653;SDS011;55636;51.108;13.622;2024-03-08T03:10:00;20.73;;;17.97;;
68653;SDS011;55636;51.108;13.622;2024-03-08T03:11:02;21.47;;;18.00;;
68653;SDS011;55636;51.108;13.622;2024-03-08T03:12:05;22.57;;;18.37;;
68653;SDS011;55636;51.108;13.622;2024-03-08T03:13:11;21.43;;;18.37;;
68653;SDS011;55636;51.108;13.622;2024-03-08T03:14:14;21.80;;;18.23;;
68653;SDS011;55636;51.108;13.622;2024-03-08T03:15:18;21.33;;;17.40;;
68653;SDS011;55636;51.108;13.622;2024-03-08T03:16:21;20.33;;;17.67;;
68653;SDS011;55636;51.108;13.622;2024-03-08T03:17:24;21.60;;;18.07;;
68653;SDS011;55636;51.108;13.622;2024-03-08T03:18:27;20.77;;;18.57;;
68653;SDS011;55636;51.108;13.622;2024-03-08T03:19:30;23.87;;;19.00;;
68653;SDS011;55636;51.108;13.622;2024-03-08T03:20:33;21.63;;;19.20;;
68653;SDS011;55636;51.108;13.622;2024-03-08T03:21:39;22.00;;;18.83;;
68653;SDS011;55636;51.108;13.622;2024-03-08T03:22:41;21.40;;;18.43;;
68653;SDS011;55636;51.108;13.622;2024-03-08T03:23:44;22.27;;;18.67;;
68653;SDS011;55636;51.108;13.622;2024-03-08T03:24:46;20.80;;;18.47;;
68653;SDS011;55636;51.108;13.622;2024-03-08T03:25:50;22.03;;;19.07;;
68653;SDS011;55636;51.108;13.622;2024-03-08T03:26:54;23.67;;;18.63;;
68653;SDS011;55636;51.108;13.622;2024-03-08T03:27:58;22.50;;;18.73;;
68653;SDS011;55636;51.108;13.622;2024-03-08T03:29:00;20.83;;;18.27;;
68653;SDS011;55636;51.108;13.622;2024-03-08T03:30:06;21.03;;;18.53;;
68653;SDS011;55636;51.108;13.622;2024-03-08T03:31:24;24.30;;;18.80;;
68653;SDS011;55636;51.108;13.622;2024-03-08T03:32:27;22.83;;;18.83;;
68653;SDS011;55636;51.108;13.622;2024-03-08T03:33:30;22.97;;;19.70;;
68653;SDS011;55636;51.108;13.622;2024-03-08T03:34:33;21.87;;;19.00;;
68653;SDS011;55636;51.108;13.622;2024-03-08T03:35:38;22.03;;;18.70;;
68653;SDS011;55636;51.108;13.622;2024-03-08T03:36:43;22.03;;;18.83;;
68653;SDS011;55636;51.108;13.622;2024-03-08T03:37:49;22.67;;;19.23;;
68653;SDS011;55636;51.108;13.622;2024-03-08T03:39:08;20.93;;;18.07;;
68653;SDS011;55636;51.108;13.622;2024-03-08T03:40:22;22.03;;;18.63;;
68653;SDS011;55636;51.108;13.622;2024-03-08T03:41:26;22.37;;;19.30;;
68653;SDS011;55636;51.108;13.622;2024-03-08T03:42:29;22.90;;;18.63;;
68653;SDS011;55636;51.108;13.622;2024-03-08T03:43:32;22.40;;;18.87;;
68653;SDS011;55636;51.108;13.622;2024-03-08T03:44:36;20.80;;;18.60;;
68653;SDS011;55636;51.108;13.622;2024-03-08T03:45:40;22.10;;;18.83;;
68653;SDS011;55636;51.108;13.622;2024-03-08T03:46:44;22.23;;;19.53;;
68653;SDS011;55636;51.108;13.622;2024-03-08T03:47:47;22.43;;;19.33;;
68653;SDS011;55636;51.108;13.622;2024-03-08T03:48:49;22.40;;;19.23;;
68653;SDS011;55636;51.108;13.622;2024-03-08T03:49:53;22.77;;;19.13;;
68653;SDS011;55636;51.108;13.622;2024-03-08T03:51:02;22.00;;;18.80;;
68653;SDS011;55636;51.108;13.622;2024-03-08T03:52:05;23.03;;;18.67;;
68653;SDS011;55636;51.108;13.622;2024-03-08T03:53:09;23.63;;;19.13;;
68653;SDS011;55636;51.108;13.622;2024-03-08T03:54:12;23.47;;;19.40;;
68653;SDS011;55636;51.108;13.622;2024-03-08T03:55:16;22.13;;;18.87;;
68653;SDS011;55636;51.108;13.622;2024-03-08T03:56:24;22.57;;;18.90;;
68653;SDS011;55636;51.108;13.622;2024-03-08T03:57:27;21.80;;;18.90;;
68653;SDS011;55636;51.108;13.622;2024-03-08T03:58:33;23.30;;;19.47;;
68653;SDS011;55636;51.108;13.622;2024-03-08T03:59:35;21.63;;;18.90;;
68653;SDS011;55636;51.108;13.622;2024-03-08T04:00:38;21.43;;;18.63;;
68653;SDS011;55636;51.108;13.622;2024-03-08T04:01:42;24.43;;;19.80;;
68653;SDS011;55636;51.108;13.622;2024-03-08T04:02:46;21.87;;;18.80;;
68653;SDS011;55636;51.108;13.622;2024-03-08T04:03:49;21.67;;;18.33;;
68653;SDS011;55636;51.108;13.622;2024-03-08T04:04:53;22.70;;;19.27;;
68653;SDS011;55636;51.108;13.622;2024-03-08T04:05:56;24.70;;;19.70;;
68653;SDS011;55636;51.108;13.622;2024-03-08T04:06:59;22.17;;;19.03;;
68653;SDS011;55636;51.108;13.622;2024-03-08T04:08:04;22.53;;;19.50;;
68653;SDS011;55636;51.108;13.622;2024-03-08T04:09:06;23.40;;;19.23;;
68653;SDS011;55636;51.108;13.622;2024-03-08T04:10:10;22.20;;;19.07;;
68653;SDS011;55636;51.108;13.622;2024-03-08T04:11:14;21.63;;;19.17;;
68653;SDS011;55636;51.108;13.622;2024-03-08T04:12:18;22.27;;;19.33;;
68653;SDS011;55636;51.108;13.622;2024-03-08T04:13:21;23.23;;;19.27;;
68653;SDS011;55636;51.108;13.622;2024-03-08T04:14:24;23.77;;;19.00;;
68653;SDS011;55636;51.108;13.622;2024-03-08T04:15:28;22.67;;;19.50;;
68653;SDS011;55636;51.108;13.622;2024-03-08T04:16:30;22.23;;;18.67;;
68653;SDS011;55636;51.108;13.622;2024-03-08T04:17:34;23.23;;;19.60;;
68653;SDS011;55636;51.108;13.622;2024-03-08T04:18:39;23.60;;;19.37;;
68653;SDS011;55636;51.108;13.622;2024-03-08T04:19:43;22.77;;;19.87;;
68653;SDS011;55636;51.108;13.622;2024-03-08T04:20:46;21.90;;;19.20;;
68653;SDS011;55636;51.108;13.622;2024-03-08T04:21:48;24.23;;;19.23;;
68653;SDS011;55636;51.108;13.622;2024-03-08T04:22:51;21.77;;;18.37;;
68653;SDS011;55636;51.108;13.622;2024-03-08T04:23:53;20.50;;;18.23;;
68653;SDS011;55636;51.108;13.622;2024-03-08T04:24:55;22.70;;;19.33;;
68653;SDS011;55636;51.108;13.622;2024-03-08T04:25:58;24.60;;;19.90;;
68653;SDS011;55636;51.108;13.622;2024-03-08T04:27:01;23.57;;;19.63;;
68653;SDS011;55636;51.108;13.622;2024-03-08T04:28:03;22.10;;;19.27;;
68653;SDS011;55636;51.108;13.622;2024-03-08T04:29:06;24.27;;;19.57;;
68653;SDS011;55636;51.108;13.622;2024-03-08T04:30:09;22.33;;;19.13;;
68653;SDS011;55636;51.108;13.622;2024-03-08T04:31:12;21.97;;;18.33;;
68653;SDS011;55636;51.108;13.622;2024-03-08T04:32:14;26.43;;;20.03;;
68653;SDS011;55636;51.108;13.622;2024-03-08T04:33:17;21.30;;;18.80;;
68653;SDS011;55636;51.108;13.622;2024-03-08T04:34:23;22.83;;;19.90;;
68653;SDS011;55636;51.108;13.622;2024-03-08T04:35:27;24.03;;;19.50;;
68653;SDS011;55636;51.108;13.622;2024-03-08T04:36:33;23.33;;;19.03;;
68653;SDS011;55636;51.108;13.622;2024-03-08T04:37:36;21.87;;;19.33;;
68653;SDS011;55636;51.108;13.622;2024-03-08T04:38:39;23.17;;;19.37;;
68653;SDS011;55636;51.108;13.622;2024-03-08T04:39:43;24.60;;;19.77;;
68653;SDS011;55636;51.108;13.622;2024-03-08T04:40:45;24.40;;;19.73;;
68653;SDS011;55636;51.108;13.622;2024-03-08T04:41:47;23.07;;;19.10;;
68653;SDS011;55636;51.108;13.622;2024-03-08T04:42:52;23.77;;;20.00;;
68653;SDS011;55636;51.108;13.622;2024-03-08T04:43:55;24.60;;;20.47;;
68653;SDS011;55636;51.108;13.622;2024-03-08T04:45:02;23.73;;;20.27;;
68653;SDS011;55636;51.108;13.622;2024-03-08T04:46:08;24.43;;;21.03;;
68653;SDS011;55636;51.108;13.622;2024-03-08T04:47:11;24.27;;;20.80;;
68653;SDS011;55636;51.108;13.622;2024-03-08T04:48:13;24.80;;;20.63;;
68653;SDS011;55636;51.108;13.622;2024-03-08T04:49:17;26.77;;;21.30;;
68653;SDS011;55636;51.108;13.622;2024-03-08T04:50:20;22.67;;;19.57;;
68653;SDS011;55636;51.108;13.622;2024-03-08T04:51:22;25.13;;;20.93;;
68653;SDS011;55636;51.108;13.622;2024-03-08T04:52:25;23.80;;;19.73;;
68653;SDS011;55636;51.108;13.622;2024-03-08T04:53:28;25.40;;;20.93;;
68653;SDS011;55636;51.108;13.622;2024-03-08T04:54:31;24.10;;;20.33;;
68653;SDS011;55636;51.108;13.622;2024-03-08T04:55:36;23.27;;;20.13;;
68653;SDS011;55636;51.108;13.622;2024-03-08T04:56:39;23.73;;;20.37;;
68653;SDS011;55636;51.108;13.622;2024-03-08T04:57:42;22.37;;;19.03;;
68653;SDS011;55636;51.108;13.622;2024-03-08T04:58:46;24.53;;;20.20;;
68653;SDS011;55636;51.108;13.622;2024-03-08T04:59:50;23.97;;;19.10;;
68653;SDS011;55636;51.108;13.622;2024-03-08T05:00:52;22.00;;;19.40;;
68653;SDS011;55636;51.108;13.622;2024-03-08T05:01:55;24.30;;;20.50;;
68653;SDS011;55636;51.108;13.622;2024-03-08T05:02:58;23.43;;;20.13;;
68653;SDS011;55636;51.108;13.622;2024-03-08T05:04:01;24.23;;;19.67;;
68653;SDS011;55636;51.108;13.622;2024-03-08T05:05:08;24.17;;;20.87;;
68653;SDS011;55636;51.108;13.622;2024-03-08T05:06:17;23.73;;;20.17;;
68653;SDS011;55636;51.108;13.622;2024-03-08T05:07:19;22.83;;;19.90;;
68653;SDS011;55636;51.108;13.622;2024-03-08T05:08:23;24.00;;;20.00;;
68653;SDS011;55636;51.108;13.622;2024-03-08T05:09:25;22.13;;;19.57;;
68653;SDS011;55636;51.108;13.622;2024-03-08T05:10:27;25.53;;;20.70;;
68653;SDS011;55636;51.108;13.622;2024-03-08T05:11:31;25.27;;;20.07;;
68653;SDS011;55636;51.108;13.622;2024-03-08T05:12:34;22.87;;;19.33;;
68653;SDS011;55636;51.108;13.622;2024-03-08T05:13:37;23.67;;;19.73;;
68653;SDS011;55636;51.108;13.622;2024-03-08T05:14:39;24.20;;;19.30;;
68653;SDS011;55636;51.108;13.622;2024-03-08T05:15:42;23.20;;;19.63;;
68653;SDS011;55636;51.108;13.622;2024-03-08T05:16:46;25.77;;;19.40;;
68653;SDS011;55636;51.108;13.622;2024-03-08T05:17:51;24.93;;;20.20;;
68653;SDS011;55636;51.108;13.622;2024-03-08T05:18:55;25.70;;;20.53;;
68653;SDS011;55636;51.108;13.622;2024-03-08T05:20:00;23.10;;;19.03;;
68653;SDS011;55636;51.108;13.622;2024-03-08T05:21:03;23.63;;;19.97;;
68653;SDS011;55636;51.108;13.622;2024-03-08T05:22:06;23.37;;;20.07;;
68653;SDS011;55636;51.108;13.622;2024-03-08T05:23:09;24.03;;;20.10;;
68653;SDS011;55636;51.108;13.622;2024-03-08T05:24:11;23.30;;;20.13;;
68653;SDS011;55636;51.108;13.622;2024-03-08T05:25:15;24.40;;;20.00;;
68653;SDS011;55636;51.108;13.622;2024-03-08T05:26:20;24.30;;;20.23;;
68653;SDS011;55636;51.108;13.622;2024-03-08T05:27:24;24.17;;;20.10;;
68653;SDS011;55636;51.108;13.622;2024-03-08T05:28:27;27.10;;;20.87;;
68653;SDS011;55636;51.108;13.622;2024-03-08T05:29:29;25.20;;;20.83;;
68653;SDS011;55636;51.108;13.622;2024-03-08T05:30:32;25.57;;;20.57;;
68653;SDS011;55636;51.108;13.622;2024-03-08T05:32:50;23.67;;;20.17;;
68653;SDS011;55636;51.108;13.622;2024-03-08T05:33:55;25.70;;;20.43;;
68653;SDS011;55636;51.108;13.622;2024-03-08T05:35:07;24.77;;;20.13;;
68653;SDS011;55636;51.108;13.622;2024-03-08T05:36:13;24.53;;;20.70;;
68653;SDS011;55636;51.108;13.622;2024-03-08T05:37:17;27.10;;;21.27;;
68653;SDS011;55636;51.108;13.622;2024-03-08T05:38:22;23.00;;;19.97;;
68653;SDS011;55636;51.108;13.622;2024-03-08T05:39:25;24.33;;;20.57;;
68653;SDS011;55636;51.108;13.622;2024-03-08T05:40:29;22.90;;;19.93;;
68653;SDS011;55636;51.108;13.622;2024-03-08T05:41:36;25.10;;;20.67;;
68653;SDS011;55636;51.108;13.622;2024-03-08T05:42:38;25.27;;;21.10;;
68653;SDS011;55636;51.108;13.622;2024-03-08T05:43:41;23.97;;;20.30;;
68653;SDS011;55636;51.108;13.622;2024-03-08T05:44:44;24.73;;;20.80;;
68653;SDS011;55636;51.108;13.622;2024-03-08T05:45:46;26.13;;;21.73;;
68653;SDS011;55636;51.108;13.622;2024-03-08T05:46:49;23.17;;;19.77;;
68653;SDS011;55636;51.108;13.622;2024-03-08T05:47:52;23.03;;;19.83;;
68653;SDS011;55636;51.108;13.622;2024-03-08T05:48:55;23.40;;;20.13;;
68653;SDS011;55636;51.108;13.622;2024-03-08T05:49:59;26.23;;;21.57;;
68653;SDS011;55636;51.108;13.622;2024-03-08T05:51:01;24.17;;;19.80;;
68653;SDS011;55636;51.108;13.622;2024-03-08T05:52:04;25.27;;;20.23;;
68653;SDS011;55636;51.108;13.622;2024-03-08T05:53:06;23.10;;;20.60;;
68653;SDS011;55636;51.108;13.622;2024-03-08T05:54:12;25.47;;;20.30;;
68653;SDS011;55636;51.108;13.622;2024-03-08T05:55:19;25.50;;;20.57;;
68653;SDS011;55636;51.108;13.622;2024-03-08T05:56:21;25.60;;;21.23;;
68653;SDS011;55636;51.108;13.622;2024-03-08T05:57:25;25.20;;;21.27;;
68653;SDS011;55636;51.108;13.622;2024-03-08T05:58:29;24.60;;;21.10;;
68653;SDS011;55636;51.108;13.622;2024-03-08T05:59:32;25.10;;;21.13;;
68653;SDS011;55636;51.108;13.622;2024-03-08T06:00:37;23.97;;;20.77;;
68653;SDS011;55636;51.108;13.622;2024-03-08T06:01:41;25.77;;;20.90;;
68653;SDS011;55636;51.108;13.622;2024-03-08T06:02:45;25.00;;;21.27;;
68653;SDS011;55636;51.108;13.622;2024-03-08T06:03:47;24.17;;;20.93;;
68653;SDS011;55636;51.108;13.622;2024-03-08T06:04:51;25.90;;;21.67;;
68653;SDS011;55636;51.108;13.622;2024-03-08T06:05:53;26.40;;;22.27;;
68653;SDS011;55636;51.108;13.622;2024-03-08T06:06:56;26.03;;;21.03;;
68653;SDS011;55636;51.108;13.622;2024-03-08T06:08:02;25.80;;;21.97;;
68653;SDS011;55636;51.108;13.622;2024-03-08T06:09:07;24.87;;;21.13;;